sensor_id;sensor_type;location;lat;lon;timestamp;P1;durP1;ratioP1;P2;durP2;ratioP2
38435;SDS011;24220;48.168;14.024;2023-06-14T00:00:00;3.95;;;2.70;;
38435;SDS011;24220;48.168;14.024;2023-06-14T00:02:27;2.72;;;2.47;;
38435;SDS011;24220;48.168;14.024;2023-06-14T00:04:55;2.92;;;2.35;;
38435;SDS011;24220;48.168;14.024;2023-06-14T00:07:33;2.83;;;2.42;;
38435;SDS011;24220;48.168;14.024;2023-06-14T00:10:05;3.30;;;2.78;;
38435;SDS011;24220;48.168;14.024;2023-06-14T00:12:33;3.47;;;2.50;;
38435;SDS011;24220;48.168;14.024;2023-06-14T00:15:01;5.90;;;2.60;;
38435;SDS011;24220;48.168;14.024;2023-06-14T00:17:29;3.38;;;2.63;;
38435;SDS011;24220;48.168;14.024;2023-06-14T00:19:57;3.85;;;2.55;;
38435;SDS011;24220;48.168;14.024;2023-06-14T00:22:30;3.63;;;2.75;;
38435;SDS011;24220;48.168;14.024;2023-06-14T00:24:58;2.95;;;2.65;;
38435;SDS011;24220;48.168;14.024;2023-06-14T00:27:40;5.18;;;2.60;;
38435;SDS011;24220;48.168;14.024;2023-06-14T00:30:08;3.35;;;2.55;;
38435;SDS011;24220;48.168;14.024;2023-06-14T00:32:36;3.58;;;2.58;;
38435;SDS011;24220;48.168;14.024;2023-06-14T00:35:04;3.08;;;2.55;;
38435;SDS011;24220;48.168;14.024;2023-06-14T00:37:31;3.33;;;2.75;;
38435;SDS011;24220;48.168;14.024;2023-06-14T00:39:58;5.03;;;2.60;;
38435;SDS011;24220;48.168;14.024;2023-06-14T00:42:28;3.00;;;2.50;;
38435;SDS011;24220;48.168;14.024;2023-06-14T00:44:56;4.38;;;2.67;;
38435;SDS011;24220;48.168;14.024;2023-06-14T00:47:26;3.80;;;2.80;;
38435;SDS011;24220;48.168;14.024;2023-06-14T00:49:59;3.75;;;2.63;;
38435;SDS011;24220;48.168;14.024;2023-06-14T00:53:24;2.80;;;2.50;;
38435;SDS011;24220;48.168;14.024;2023-06-14T01:01:19;2.60;;;2.40;;
38435;SDS011;24220;48.168;14.024;2023-06-14T01:04:32;2.47;;;2.15;;
38435;SDS011;24220;48.168;14.024;2023-06-14T01:15:30;5.30;;;3.05;;
38435;SDS011;24220;48.168;14.024;2023-06-14T01:19:01;3.73;;;2.47;;
38435;SDS011;24220;48.168;14.024;2023-06-14T01:21:31;4.97;;;3.13;;
38435;SDS011;24220;48.168;14.024;2023-06-14T01:24:09;4.03;;;3.20;;
38435;SDS011;24220;48.168;14.024;2023-06-14T01:26:39;4.00;;;3.10;;
38435;SDS011;24220;48.168;14.024;2023-06-14T01:29:13;3.47;;;3.15;;
38435;SDS011;24220;48.168;14.024;2023-06-14T01:31:45;4.25;;;3.10;;
38435;SDS011;24220;48.168;14.024;2023-06-14T01:34:18;4.20;;;2.85;;
38435;SDS011;24220;48.168;14.024;2023-06-14T01:36:46;3.92;;;2.72;;
38435;SDS011;24220;48.168;14.024;2023-06-14T01:39:15;3.65;;;2.83;;
38435;SDS011;24220;48.168;14.024;2023-06-14T01:41:46;4.00;;;3.00;;
38435;SDS011;24220;48.168;14.024;2023-06-14T01:44:16;4.47;;;3.55;;
38435;SDS011;24220;48.168;14.024;2023-06-14T01:46:47;5.40;;;3.63;;
38435;SDS011;24220;48.168;14.024;2023-06-14T01:49:15;4.85;;;3.53;;
38435;SDS011;24220;48.168;14.024;2023-06-14T01:51:45;5.75;;;3.92;;
38435;SDS011;24220;48.168;14.024;2023-06-14T01:54:15;5.97;;;3.65;;
38435;SDS011;24220;48.168;14.024;2023-06-14T01:56:44;7.40;;;3.80;;
38435;SDS011;24220;48.168;14.024;2023-06-14T01:59:14;5.78;;;4.00;;
38435;SDS011;24220;48.168;14.024;2023-06-14T02:01:42;5.15;;;3.97;;
38435;SDS011;24220;48.168;14.024;2023-06-14T02:04:10;6.65;;;4.00;;
38435;SDS011;24220;48.168;14.024;2023-06-14T02:06:37;9.27;;;4.18;;
38435;SDS011;24220;48.168;14.024;2023-06-14T02:09:07;6.45;;;4.00;;
38435;SDS011;24220;48.168;14.024;2023-06-14T02:11:43;5.05;;;3.90;;
38435;SDS011;24220;48.168;14.024;2023-06-14T02:14:36;5.22;;;3.30;;
38435;SDS011;24220;48.168;14.024;2023-06-14T02:17:05;5.80;;;3.53;;
38435;SDS011;24220;48.168;14.024;2023-06-14T02:19:35;4.80;;;3.88;;
38435;SDS011;24220;48.168;14.024;2023-06-14T02:22:02;5.55;;;3.92;;
38435;SDS011;24220;48.168;14.024;2023-06-14T02:24:33;5.38;;;4.30;;
38435;SDS011;24220;48.168;14.024;2023-06-14T02:27:01;4.95;;;3.90;;
38435;SDS011;24220;48.168;14.024;2023-06-14T02:29:31;6.05;;;4.22;;
38435;SDS011;24220;48.168;14.024;2023-06-14T02:31:58;6.47;;;4.53;;
38435;SDS011;24220;48.168;14.024;2023-06-14T02:34:25;8.52;;;4.88;;
38435;SDS011;24220;48.168;14.024;2023-06-14T02:36:53;6.25;;;4.30;;
38435;SDS011;24220;48.168;14.024;2023-06-14T02:39:20;6.97;;;4.20;;
38435;SDS011;24220;48.168;14.024;2023-06-14T02:41:50;7.28;;;4.32;;
38435;SDS011;24220;48.168;14.024;2023-06-14T02:44:17;6.18;;;4.30;;
38435;SDS011;24220;48.168;14.024;2023-06-14T02:46:45;5.07;;;4.22;;
38435;SDS011;24220;48.168;14.024;2023-06-14T02:49:15;6.25;;;4.15;;
38435;SDS011;24220;48.168;14.024;2023-06-14T02:51:42;6.07;;;4.60;;
38435;SDS011;24220;48.168;14.024;2023-06-14T02:54:09;8.02;;;5.07;;
38435;SDS011;24220;48.168;14.024;2023-06-14T02:56:37;7.82;;;4.10;;
38435;SDS011;24220;48.168;14.024;2023-06-14T02:59:04;4.97;;;3.40;;
38435;SDS011;24220;48.168;14.024;2023-06-14T03:01:35;4.88;;;4.05;;
38435;SDS011;24220;48.168;14.024;2023-06-14T03:04:05;5.97;;;4.10;;
38435;SDS011;24220;48.168;14.024;2023-06-14T03:06:34;6.25;;;3.92;;
38435;SDS011;24220;48.168;14.024;2023-06-14T03:09:01;5.05;;;3.95;;
38435;SDS011;24220;48.168;14.024;2023-06-14T03:11:34;5.57;;;4.30;;
38435;SDS011;24220;48.168;14.024;2023-06-14T03:14:03;4.63;;;3.72;;
38435;SDS011;24220;48.168;14.024;2023-06-14T03:16:33;6.22;;;4.50;;
38435;SDS011;24220;48.168;14.024;2023-06-14T03:19:01;4.75;;;3.78;;
38435;SDS011;24220;48.168;14.024;2023-06-14T03:21:28;6.65;;;4.57;;
38435;SDS011;24220;48.168;14.024;2023-06-14T03:23:55;6.93;;;4.65;;
38435;SDS011;24220;48.168;14.024;2023-06-14T03:26:23;6.43;;;4.30;;
38435;SDS011;24220;48.168;14.024;2023-06-14T03:28:51;7.20;;;4.53;;
38435;SDS011;24220;48.168;14.024;2023-06-14T03:31:19;6.32;;;4.63;;
38435;SDS011;24220;48.168;14.024;2023-06-14T03:33:49;7.13;;;4.13;;
38435;SDS011;24220;48.168;14.024;2023-06-14T03:36:16;5.60;;;4.63;;
38435;SDS011;24220;48.168;14.024;2023-06-14T03:38:44;6.00;;;4.15;;
38435;SDS011;24220;48.168;14.024;2023-06-14T03:41:11;5.78;;;4.30;;
38435;SDS011;24220;48.168;14.024;2023-06-14T03:43:39;6.72;;;4.57;;
38435;SDS011;24220;48.168;14.024;2023-06-14T03:46:08;6.57;;;3.88;;
38435;SDS011;24220;48.168;14.024;2023-06-14T03:48:36;4.53;;;3.80;;
38435;SDS011;24220;48.168;14.024;2023-06-14T03:51:06;5.78;;;3.78;;
38435;SDS011;24220;48.168;14.024;2023-06-14T03:53:36;6.32;;;3.58;;
38435;SDS011;24220;48.168;14.024;2023-06-14T03:56:19;4.60;;;3.92;;
38435;SDS011;24220;48.168;14.024;2023-06-14T03:58:47;5.80;;;3.78;;
38435;SDS011;24220;48.168;14.024;2023-06-14T04:01:14;5.55;;;4.35;;
38435;SDS011;24220;48.168;14.024;2023-06-14T04:03:41;7.80;;;4.18;;
38435;SDS011;24220;48.168;14.024;2023-06-14T04:06:09;6.03;;;3.80;;
38435;SDS011;24220;48.168;14.024;2023-06-14T04:08:39;4.93;;;3.92;;
38435;SDS011;24220;48.168;14.024;2023-06-14T04:11:08;3.67;;;3.30;;
38435;SDS011;24220;48.168;14.024;2023-06-14T04:13:36;5.45;;;3.88;;
38435;SDS011;24220;48.168;14.024;2023-06-14T04:16:04;4.80;;;3.90;;
38435;SDS011;24220;48.168;14.024;2023-06-14T04:18:32;4.55;;;3.83;;
38435;SDS011;24220;48.168;14.024;2023-06-14T04:20:59;5.80;;;4.05;;
38435;SDS011;24220;48.168;14.024;2023-06-14T04:23:27;5.50;;;3.60;;
38435;SDS011;24220;48.168;14.024;2023-06-14T04:25:57;5.10;;;3.70;;
38435;SDS011;24220;48.168;14.024;2023-06-14T04:28:31;5.35;;;3.83;;
38435;SDS011;24220;48.168;14.024;2023-06-14T04:30:58;5.10;;;3.90;;
38435;SDS011;24220;48.168;14.024;2023-06-14T04:33:28;5.05;;;3.78;;
38435;SDS011;24220;48.168;14.024;2023-06-14T04:35:58;5.72;;;4.03;;
38435;SDS011;24220;48.168;14.024;2023-06-14T04:38:30;4.70;;;3.95;;
38435;SDS011;24220;48.168;14.024;2023-06-14T04:41:03;8.07;;;4.35;;
38435;SDS011;24220;48.168;14.024;2023-06-14T04:43:33;5.93;;;4.05;;
38435;SDS011;24220;48.168;14.024;2023-06-14T04:46:05;6.70;;;4.38;;
38435;SDS011;24220;48.168;14.024;2023-06-14T04:48:37;5.78;;;4.20;;
38435;SDS011;24220;48.168;14.024;2023-06-14T04:51:09;5.90;;;4.18;;
38435;SDS011;24220;48.168;14.024;2023-06-14T04:53:37;5.85;;;4.22;;
38435;SDS011;24220;48.168;14.024;2023-06-14T04:56:04;5.30;;;4.30;;
38435;SDS011;24220;48.168;14.024;2023-06-14T04:58:34;8.35;;;4.30;;
38435;SDS011;24220;48.168;14.024;2023-06-14T05:01:01;5.30;;;4.43;;
38435;SDS011;24220;48.168;14.024;2023-06-14T05:03:31;6.25;;;4.40;;
38435;SDS011;24220;48.168;14.024;2023-06-14T05:06:01;5.63;;;4.32;;
38435;SDS011;24220;48.168;14.024;2023-06-14T05:08:28;5.75;;;4.53;;
38435;SDS011;24220;48.168;14.024;2023-06-14T05:10:58;4.95;;;4.43;;
38435;SDS011;24220;48.168;14.024;2023-06-14T05:13:28;5.68;;;4.55;;
38435;SDS011;24220;48.168;14.024;2023-06-14T05:18:30;8.70;;;4.47;;
38435;SDS011;24220;48.168;14.024;2023-06-14T05:20:57;4.85;;;4.07;;
38435;SDS011;24220;48.168;14.024;2023-06-14T05:23:27;5.93;;;4.05;;
38435;SDS011;24220;48.168;14.024;2023-06-14T05:25:54;5.68;;;4.18;;
38435;SDS011;24220;48.168;14.024;2023-06-14T05:28:22;7.45;;;4.93;;
38435;SDS011;24220;48.168;14.024;2023-06-14T05:30:49;5.72;;;4.50;;
38435;SDS011;24220;48.168;14.024;2023-06-14T05:33:17;4.93;;;4.30;;
38435;SDS011;24220;48.168;14.024;2023-06-14T05:35:48;7.53;;;4.78;;
38435;SDS011;24220;48.168;14.024;2023-06-14T05:38:17;6.25;;;4.32;;
38435;SDS011;24220;48.168;14.024;2023-06-14T05:40:47;4.85;;;4.32;;
38435;SDS011;24220;48.168;14.024;2023-06-14T05:43:14;6.15;;;4.68;;
38435;SDS011;24220;48.168;14.024;2023-06-14T05:45:41;11.15;;;5.10;;
38435;SDS011;24220;48.168;14.024;2023-06-14T05:48:09;9.10;;;4.45;;
38435;SDS011;24220;48.168;14.024;2023-06-14T05:50:36;6.32;;;4.80;;
38435;SDS011;24220;48.168;14.024;2023-06-14T05:53:06;8.05;;;4.50;;
38435;SDS011;24220;48.168;14.024;2023-06-14T05:55:33;7.63;;;4.72;;
38435;SDS011;24220;48.168;14.024;2023-06-14T05:58:02;7.30;;;4.47;;
38435;SDS011;24220;48.168;14.024;2023-06-14T06:00:30;8.30;;;4.38;;
38435;SDS011;24220;48.168;14.024;2023-06-14T06:02:58;7.68;;;4.60;;
38435;SDS011;24220;48.168;14.024;2023-06-14T06:05:26;8.13;;;5.13;;
38435;SDS011;24220;48.168;14.024;2023-06-14T06:07:53;5.97;;;4.50;;
38435;SDS011;24220;48.168;14.024;2023-06-14T06:10:20;9.32;;;4.65;;
38435;SDS011;24220;48.168;14.024;2023-06-14T06:12:50;7.43;;;4.50;;
38435;SDS011;24220;48.168;14.024;2023-06-14T06:15:21;10.82;;;4.57;;
38435;SDS011;24220;48.168;14.024;2023-06-14T06:17:48;10.43;;;5.18;;
38435;SDS011;24220;48.168;14.024;2023-06-14T06:20:23;6.95;;;4.85;;
38435;SDS011;24220;48.168;14.024;2023-06-14T06:22:56;6.88;;;4.60;;
38435;SDS011;24220;48.168;14.024;2023-06-14T06:25:25;7.22;;;4.60;;
38435;SDS011;24220;48.168;14.024;2023-06-14T06:27:57;8.85;;;4.63;;
38435;SDS011;24220;48.168;14.024;2023-06-14T06:30:27;5.22;;;4.28;;
38435;SDS011;24220;48.168;14.024;2023-06-14T06:32:55;8.60;;;4.75;;
38435;SDS011;24220;48.168;14.024;2023-06-14T06:35:23;5.25;;;4.75;;
38435;SDS011;24220;48.168;14.024;2023-06-14T06:37:50;5.32;;;4.63;;
38435;SDS011;24220;48.168;14.024;2023-06-14T06:40:21;5.38;;;3.67;;
38435;SDS011;24220;48.168;14.024;2023-06-14T06:42:48;5.38;;;4.18;;
38435;SDS011;24220;48.168;14.024;2023-06-14T06:45:16;9.20;;;4.45;;
38435;SDS011;24220;48.168;14.024;2023-06-14T06:47:50;6.00;;;4.15;;
38435;SDS011;24220;48.168;14.024;2023-06-14T06:50:17;4.90;;;3.95;;
38435;SDS011;24220;48.168;14.024;2023-06-14T06:52:45;4.65;;;4.10;;
38435;SDS011;24220;48.168;14.024;2023-06-14T06:55:12;5.15;;;3.72;;
38435;SDS011;24220;48.168;14.024;2023-06-14T06:57:41;4.47;;;3.85;;
38435;SDS011;24220;48.168;14.024;2023-06-14T07:00:08;9.98;;;4.50;;
38435;SDS011;24220;48.168;14.024;2023-06-14T07:02:38;5.68;;;3.97;;
38435;SDS011;24220;48.168;14.024;2023-06-14T07:05:09;4.75;;;3.50;;
38435;SDS011;24220;48.168;14.024;2023-06-14T07:07:38;5.35;;;3.70;;
38435;SDS011;24220;48.168;14.024;2023-06-14T07:10:05;5.45;;;3.92;;
38435;SDS011;24220;48.168;14.024;2023-06-14T07:12:35;4.97;;;3.60;;
38435;SDS011;24220;48.168;14.024;2023-06-14T07:15:07;4.30;;;3.72;;
38435;SDS011;24220;48.168;14.024;2023-06-14T07:17:36;4.63;;;3.88;;
38435;SDS011;24220;48.168;14.024;2023-06-14T07:20:04;7.40;;;4.45;;
38435;SDS011;24220;48.168;14.024;2023-06-14T07:22:34;5.63;;;4.22;;
38435;SDS011;24220;48.168;14.024;2023-06-14T07:25:02;6.65;;;3.67;;
38435;SDS011;24220;48.168;14.024;2023-06-14T07:27:29;5.20;;;3.50;;
38435;SDS011;24220;48.168;14.024;2023-06-14T07:30:00;4.78;;;3.83;;
38435;SDS011;24220;48.168;14.024;2023-06-14T07:32:27;4.20;;;3.80;;
38435;SDS011;24220;48.168;14.024;2023-06-14T07:34:57;6.35;;;3.88;;
38435;SDS011;24220;48.168;14.024;2023-06-14T07:37:25;5.72;;;3.65;;
38435;SDS011;24220;48.168;14.024;2023-06-14T07:39:55;6.78;;;4.05;;
38435;SDS011;24220;48.168;14.024;2023-06-14T07:42:22;4.45;;;4.03;;
38435;SDS011;24220;48.168;14.024;2023-06-14T07:44:50;5.15;;;4.05;;
38435;SDS011;24220;48.168;14.024;2023-06-14T07:47:19;5.63;;;3.80;;
38435;SDS011;24220;48.168;14.024;2023-06-14T07:49:49;4.60;;;3.67;;
38435;SDS011;24220;48.168;14.024;2023-06-14T07:52:16;6.68;;;3.90;;
38435;SDS011;24220;48.168;14.024;2023-06-14T07:54:44;4.45;;;4.05;;
38435;SDS011;24220;48.168;14.024;2023-06-14T07:57:11;5.18;;;4.00;;
38435;SDS011;24220;48.168;14.024;2023-06-14T07:59:41;4.90;;;4.40;;
38435;SDS011;24220;48.168;14.024;2023-06-14T08:02:09;6.00;;;3.95;;
38435;SDS011;24220;48.168;14.024;2023-06-14T08:04:36;6.35;;;4.45;;
38435;SDS011;24220;48.168;14.024;2023-06-14T08:07:07;4.93;;;3.75;;
38435;SDS011;24220;48.168;14.024;2023-06-14T08:09:36;4.30;;;3.83;;
38435;SDS011;24220;48.168;14.024;2023-06-14T08:12:07;5.60;;;3.97;;
38435;SDS011;24220;48.168;14.024;2023-06-14T08:14:36;5.32;;;3.97;;
38435;SDS011;24220;48.168;14.024;2023-06-14T08:17:04;4.70;;;3.83;;
38435;SDS011;24220;48.168;14.024;2023-06-14T08:19:31;6.07;;;4.22;;
38435;SDS011;24220;48.168;14.024;2023-06-14T08:21:59;5.07;;;3.78;;
38435;SDS011;24220;48.168;14.024;2023-06-14T08:24:26;5.65;;;4.18;;
38435;SDS011;24220;48.168;14.024;2023-06-14T08:26:54;6.20;;;4.15;;
38435;SDS011;24220;48.168;14.024;2023-06-14T08:29:23;4.68;;;3.92;;
38435;SDS011;24220;48.168;14.024;2023-06-14T08:31:50;3.70;;;3.30;;
38435;SDS011;24220;48.168;14.024;2023-06-14T08:34:20;4.22;;;3.63;;
38435;SDS011;24220;48.168;14.024;2023-06-14T08:36:47;8.38;;;3.78;;
38435;SDS011;24220;48.168;14.024;2023-06-14T08:39:15;5.18;;;3.88;;
38435;SDS011;24220;48.168;14.024;2023-06-14T08:41:43;6.68;;;3.80;;
38435;SDS011;24220;48.168;14.024;2023-06-14T08:44:17;5.38;;;3.85;;
38435;SDS011;24220;48.168;14.024;2023-06-14T08:46:48;5.43;;;3.97;;
38435;SDS011;24220;48.168;14.024;2023-06-14T08:49:16;5.72;;;3.83;;
38435;SDS011;24220;48.168;14.024;2023-06-14T08:51:44;4.38;;;3.67;;
38435;SDS011;24220;48.168;14.024;2023-06-14T08:54:14;4.25;;;3.20;;
38435;SDS011;24220;48.168;14.024;2023-06-14T08:56:42;5.65;;;3.35;;
38435;SDS011;24220;48.168;14.024;2023-06-14T08:59:10;6.05;;;3.30;;
38435;SDS011;24220;48.168;14.024;2023-06-14T09:01:38;5.45;;;3.55;;
38435;SDS011;24220;48.168;14.024;2023-06-14T09:04:29;6.55;;;3.92;;
38435;SDS011;24220;48.168;14.024;2023-06-14T09:06:56;6.57;;;3.67;;
38435;SDS011;24220;48.168;14.024;2023-06-14T09:09:25;4.60;;;3.28;;
38435;SDS011;24220;48.168;14.024;2023-06-14T09:11:55;4.15;;;3.60;;
38435;SDS011;24220;48.168;14.024;2023-06-14T09:14:23;4.40;;;3.45;;
38435;SDS011;24220;48.168;14.024;2023-06-14T09:16:54;5.65;;;3.28;;
38435;SDS011;24220;48.168;14.024;2023-06-14T09:19:25;5.63;;;3.70;;
38435;SDS011;24220;48.168;14.024;2023-06-14T09:21:55;4.65;;;3.20;;
38435;SDS011;24220;48.168;14.024;2023-06-14T09:24:25;5.47;;;3.45;;
38435;SDS011;24220;48.168;14.024;2023-06-14T09:26:53;3.83;;;3.00;;
38435;SDS011;24220;48.168;14.024;2023-06-14T09:29:21;5.82;;;2.65;;
38435;SDS011;24220;48.168;14.024;2023-06-14T09:31:51;6.78;;;3.47;;
38435;SDS011;24220;48.168;14.024;2023-06-14T09:34:18;4.20;;;3.15;;
38435;SDS011;24220;48.168;14.024;2023-06-14T09:36:50;3.78;;;3.33;;
38435;SDS011;24220;48.168;14.024;2023-06-14T09:39:17;4.10;;;3.55;;
38435;SDS011;24220;48.168;14.024;2023-06-14T09:41:45;6.88;;;3.35;;
38435;SDS011;24220;48.168;14.024;2023-06-14T09:44:15;4.57;;;2.92;;
38435;SDS011;24220;48.168;14.024;2023-06-14T09:46:47;3.92;;;2.90;;
38435;SDS011;24220;48.168;14.024;2023-06-14T09:49:15;3.22;;;2.92;;
38435;SDS011;24220;48.168;14.024;2023-06-14T09:51:43;4.70;;;2.67;;
38435;SDS011;24220;48.168;14.024;2023-06-14T09:54:15;4.40;;;2.67;;
38435;SDS011;24220;48.168;14.024;2023-06-14T09:56:46;5.10;;;2.80;;
38435;SDS011;24220;48.168;14.024;2023-06-14T09:59:16;5.20;;;2.65;;
38435;SDS011;24220;48.168;14.024;2023-06-14T10:01:48;3.08;;;2.67;;
38435;SDS011;24220;48.168;14.024;2023-06-14T10:04:18;5.35;;;3.10;;
38435;SDS011;24220;48.168;14.024;2023-06-14T10:06:48;3.85;;;2.47;;
38435;SDS011;24220;48.168;14.024;2023-06-14T10:09:17;3.47;;;2.40;;
38435;SDS011;24220;48.168;14.024;2023-06-14T10:11:45;3.03;;;2.40;;
38435;SDS011;24220;48.168;14.024;2023-06-14T10:14:13;3.88;;;2.70;;
38435;SDS011;24220;48.168;14.024;2023-06-14T10:22:12;3.97;;;2.35;;
38435;SDS011;24220;48.168;14.024;2023-06-14T10:24:45;4.00;;;2.70;;
38435;SDS011;24220;48.168;14.024;2023-06-14T10:27:17;4.65;;;2.80;;
38435;SDS011;24220;48.168;14.024;2023-06-14T10:32:20;2.85;;;2.63;;
38435;SDS011;24220;48.168;14.024;2023-06-14T10:34:57;5.00;;;2.30;;
38435;SDS011;24220;48.168;14.024;2023-06-14T10:37:26;4.38;;;2.72;;
38435;SDS011;24220;48.168;14.024;2023-06-14T10:39:56;3.55;;;2.33;;
38435;SDS011;24220;48.168;14.024;2023-06-14T10:42:33;3.67;;;2.55;;
38435;SDS011;24220;48.168;14.024;2023-06-14T10:45:01;4.18;;;2.75;;
38435;SDS011;24220;48.168;14.024;2023-06-14T10:47:29;3.00;;;2.70;;
38435;SDS011;24220;48.168;14.024;2023-06-14T10:50:07;3.85;;;2.67;;
38435;SDS011;24220;48.168;14.024;2023-06-14T10:52:39;3.35;;;2.53;;
38435;SDS011;24220;48.168;14.024;2023-06-14T10:57:46;3.45;;;2.40;;
38435;SDS011;24220;48.168;14.024;2023-06-14T11:00:21;2.85;;;2.55;;
38435;SDS011;24220;48.168;14.024;2023-06-14T11:06:01;2.38;;;2.17;;
38435;SDS011;24220;48.168;14.024;2023-06-14T11:08:47;2.90;;;2.63;;
38435;SDS011;24220;48.168;14.024;2023-06-14T11:11:29;2.80;;;2.50;;
38435;SDS011;24220;48.168;14.024;2023-06-14T11:14:00;4.40;;;2.63;;
38435;SDS011;24220;48.168;14.024;2023-06-14T11:16:29;2.40;;;2.20;;
38435;SDS011;24220;48.168;14.024;2023-06-14T11:19:00;3.00;;;2.35;;
38435;SDS011;24220;48.168;14.024;2023-06-14T11:24:02;5.15;;;2.60;;
38435;SDS011;24220;48.168;14.024;2023-06-14T11:26:30;3.17;;;2.20;;
38435;SDS011;24220;48.168;14.024;2023-06-14T11:29:00;2.90;;;2.20;;
38435;SDS011;24220;48.168;14.024;2023-06-14T11:31:28;2.15;;;2.05;;
38435;SDS011;24220;48.168;14.024;2023-06-14T11:33:57;4.10;;;2.63;;
38435;SDS011;24220;48.168;14.024;2023-06-14T11:36:28;3.08;;;2.20;;
38435;SDS011;24220;48.168;14.024;2023-06-14T11:38:58;3.00;;;2.10;;
38435;SDS011;24220;48.168;14.024;2023-06-14T11:41:32;3.30;;;2.50;;
38435;SDS011;24220;48.168;14.024;2023-06-14T11:44:03;2.45;;;2.15;;
38435;SDS011;24220;48.168;14.024;2023-06-14T11:46:33;4.38;;;2.20;;
38435;SDS011;24220;48.168;14.024;2023-06-14T11:49:02;2.95;;;2.05;;
38435;SDS011;24220;48.168;14.024;2023-06-14T11:51:36;3.50;;;2.50;;
38435;SDS011;24220;48.168;14.024;2023-06-14T11:54:04;2.85;;;2.08;;
38435;SDS011;24220;48.168;14.024;2023-06-14T11:56:36;3.58;;;2.42;;
38435;SDS011;24220;48.168;14.024;2023-06-14T11:59:06;3.10;;;2.00;;
38435;SDS011;24220;48.168;14.024;2023-06-14T12:01:35;3.97;;;2.53;;
38435;SDS011;24220;48.168;14.024;2023-06-14T12:04:05;2.63;;;2.42;;
38435;SDS011;24220;48.168;14.024;2023-06-14T12:06:33;3.63;;;1.92;;
38435;SDS011;24220;48.168;14.024;2023-06-14T12:09:06;4.03;;;2.17;;
38435;SDS011;24220;48.168;14.024;2023-06-14T12:11:39;4.47;;;1.92;;
38435;SDS011;24220;48.168;14.024;2023-06-14T12:14:07;4.47;;;2.03;;
38435;SDS011;24220;48.168;14.024;2023-06-14T12:16:37;2.40;;;1.92;;
38435;SDS011;24220;48.168;14.024;2023-06-14T12:19:13;4.45;;;2.20;;
38435;SDS011;24220;48.168;14.024;2023-06-14T12:21:42;2.42;;;1.95;;
38435;SDS011;24220;48.168;14.024;2023-06-14T12:24:16;2.60;;;1.98;;
38435;SDS011;24220;48.168;14.024;2023-06-14T12:26:44;3.25;;;2.08;;
38435;SDS011;24220;48.168;14.024;2023-06-14T12:29:14;3.80;;;2.10;;
38435;SDS011;24220;48.168;14.024;2023-06-14T12:31:44;2.20;;;2.00;;
38435;SDS011;24220;48.168;14.024;2023-06-14T12:34:11;2.38;;;1.75;;
38435;SDS011;24220;48.168;14.024;2023-06-14T12:36:39;2.58;;;1.92;;
38435;SDS011;24220;48.168;14.024;2023-06-14T12:39:11;2.65;;;2.10;;
38435;SDS011;24220;48.168;14.024;2023-06-14T12:41:40;2.53;;;1.90;;
38435;SDS011;24220;48.168;14.024;2023-06-14T12:44:14;2.57;;;1.93;;
38435;SDS011;24220;48.168;14.024;2023-06-14T12:46:42;4.10;;;1.80;;
38435;SDS011;24220;48.168;14.024;2023-06-14T12:49:12;2.75;;;1.88;;
38435;SDS011;24220;48.168;14.024;2023-06-14T12:51:40;3.93;;;1.90;;
38435;SDS011;24220;48.168;14.024;2023-06-14T12:54:10;3.43;;;1.80;;
38435;SDS011;24220;48.168;14.024;2023-06-14T12:56:37;2.45;;;2.17;;
38435;SDS011;24220;48.168;14.024;2023-06-14T12:59:11;3.33;;;1.77;;
38435;SDS011;24220;48.168;14.024;2023-06-14T13:01:38;4.25;;;1.80;;
38435;SDS011;24220;48.168;14.024;2023-06-14T13:04:06;2.05;;;1.60;;
38435;SDS011;24220;48.168;14.024;2023-06-14T13:06:34;4.55;;;1.70;;
38435;SDS011;24220;48.168;14.024;2023-06-14T13:09:02;2.75;;;1.60;;
38435;SDS011;24220;48.168;14.024;2023-06-14T13:11:30;1.80;;;1.58;;
38435;SDS011;24220;48.168;14.024;2023-06-14T13:13:57;2.55;;;1.80;;
38435;SDS011;24220;48.168;14.024;2023-06-14T13:16:43;1.58;;;1.40;;
38435;SDS011;24220;48.168;14.024;2023-06-14T13:19:10;3.03;;;1.60;;
38435;SDS011;24220;48.168;14.024;2023-06-14T13:21:40;2.15;;;1.55;;
38435;SDS011;24220;48.168;14.024;2023-06-14T13:24:07;1.92;;;1.55;;
38435;SDS011;24220;48.168;14.024;2023-06-14T13:26:34;2.70;;;1.48;;
38435;SDS011;24220;48.168;14.024;2023-06-14T13:29:02;3.00;;;1.65;;
38435;SDS011;24220;48.168;14.024;2023-06-14T13:31:30;2.63;;;1.70;;
38435;SDS011;24220;48.168;14.024;2023-06-14T13:34:00;3.78;;;1.80;;
38435;SDS011;24220;48.168;14.024;2023-06-14T13:36:27;2.22;;;2.00;;
38435;SDS011;24220;48.168;14.024;2023-06-14T13:38:56;1.80;;;1.60;;
38435;SDS011;24220;48.168;14.024;2023-06-14T13:41:27;2.38;;;1.63;;
38435;SDS011;24220;48.168;14.024;2023-06-14T13:44:00;3.22;;;1.92;;
38435;SDS011;24220;48.168;14.024;2023-06-14T13:46:30;4.40;;;1.90;;
38435;SDS011;24220;48.168;14.024;2023-06-14T13:48:58;4.30;;;2.15;;
38435;SDS011;24220;48.168;14.024;2023-06-14T13:51:27;6.95;;;1.77;;
38435;SDS011;24220;48.168;14.024;2023-06-14T13:53:56;5.05;;;2.20;;
38435;SDS011;24220;48.168;14.024;2023-06-14T13:56:26;2.65;;;1.83;;
38435;SDS011;24220;48.168;14.024;2023-06-14T13:58:56;2.92;;;1.70;;
38435;SDS011;24220;48.168;14.024;2023-06-14T14:01:24;5.93;;;2.35;;
38435;SDS011;24220;48.168;14.024;2023-06-14T14:03:52;3.25;;;2.13;;
38435;SDS011;24220;48.168;14.024;2023-06-14T14:06:20;2.40;;;1.80;;
38435;SDS011;24220;48.168;14.024;2023-06-14T14:08:47;6.28;;;2.97;;
38435;SDS011;24220;48.168;14.024;2023-06-14T14:11:15;3.95;;;2.30;;
38435;SDS011;24220;48.168;14.024;2023-06-14T14:13:43;3.08;;;1.95;;
38435;SDS011;24220;48.168;14.024;2023-06-14T14:16:11;7.03;;;2.47;;
38435;SDS011;24220;48.168;14.024;2023-06-14T14:18:40;7.63;;;4.07;;
38435;SDS011;24220;48.168;14.024;2023-06-14T14:21:07;4.03;;;3.60;;
38435;SDS011;24220;48.168;14.024;2023-06-14T14:23:37;3.15;;;2.53;;
38435;SDS011;24220;48.168;14.024;2023-06-14T14:26:07;3.10;;;2.80;;
38435;SDS011;24220;48.168;14.024;2023-06-14T14:28:37;5.80;;;4.30;;
38435;SDS011;24220;48.168;14.024;2023-06-14T14:31:04;5.00;;;2.58;;
38435;SDS011;24220;48.168;14.024;2023-06-14T14:33:32;3.95;;;2.50;;
38435;SDS011;24220;48.168;14.024;2023-06-14T14:36:01;4.00;;;3.15;;
38435;SDS011;24220;48.168;14.024;2023-06-14T14:38:31;4.40;;;3.38;;
38435;SDS011;24220;48.168;14.024;2023-06-14T14:40:58;3.63;;;3.00;;
38435;SDS011;24220;48.168;14.024;2023-06-14T14:43:25;4.82;;;4.13;;
38435;SDS011;24220;48.168;14.024;2023-06-14T14:45:55;5.35;;;2.80;;
38435;SDS011;24220;48.168;14.024;2023-06-14T14:48:27;3.95;;;2.50;;
38435;SDS011;24220;48.168;14.024;2023-06-14T14:50:57;6.88;;;2.72;;
38435;SDS011;24220;48.168;14.024;2023-06-14T14:53:24;3.05;;;2.47;;
38435;SDS011;24220;48.168;14.024;2023-06-14T14:55:52;4.55;;;2.10;;
38435;SDS011;24220;48.168;14.024;2023-06-14T14:58:19;2.30;;;2.10;;
38435;SDS011;24220;48.168;14.024;2023-06-14T15:00:47;6.10;;;2.00;;
38435;SDS011;24220;48.168;14.024;2023-06-14T15:03:15;3.40;;;2.63;;
38435;SDS011;24220;48.168;14.024;2023-06-14T15:05:42;3.10;;;2.17;;
38435;SDS011;24220;48.168;14.024;2023-06-14T15:08:09;4.30;;;2.60;;
38435;SDS011;24220;48.168;14.024;2023-06-14T15:10:39;5.18;;;2.78;;
38435;SDS011;24220;48.168;14.024;2023-06-14T15:13:08;4.60;;;2.42;;
38435;SDS011;24220;48.168;14.024;2023-06-14T15:15:36;4.85;;;3.00;;
38435;SDS011;24220;48.168;14.024;2023-06-14T15:18:06;3.00;;;2.27;;
38435;SDS011;24220;48.168;14.024;2023-06-14T15:20:33;2.50;;;2.30;;